sensor_id;sensor_type;location;lat;lon;timestamp;pressure;altitude;pressure_sealevel;temperature;humidity
20860;BME280;10590;48.154;11.514;2023-04-27T00:04:19;95724.47;;;6.70;67.58
20860;BME280;10590;48.154;11.514;2023-04-27T00:09:41;95720.25;;;6.50;68.93
20860;BME280;10590;48.154;11.514;2023-04-27T00:15:03;95722.66;;;6.09;69.18
20860;BME280;10590;48.154;11.514;2023-04-27T00:20:27;95718.09;;;6.33;69.35
20860;BME280;10590;48.154;11.514;2023-04-27T00:25:49;95718.53;;;6.59;68.06
20860;BME280;10590;48.154;11.514;2023-04-27T00:31:11;95719.25;;;6.46;69.20
20860;BME280;10590;48.154;11.514;2023-04-27T00:36:34;95711.59;;;6.45;69.11
20860;BME280;10590;48.154;11.514;2023-04-27T00:41:56;95707.72;;;6.56;70.14
20860;BME280;10590;48.154;11.514;2023-04-27T00:47:18;95704.56;;;6.54;69.81
20860;BME280;10590;48.154;11.514;2023-04-27T00:52:41;95707.78;;;6.51;69.82
20860;BME280;10590;48.154;11.514;2023-04-27T00:58:04;95718.69;;;6.68;69.98
20860;BME280;10590;48.154;11.514;2023-04-27T01:03:26;95714.53;;;6.99;69.71
20860;BME280;10590;48.154;11.514;2023-04-27T01:08:50;95707.97;;;7.11;69.46
20860;BME280;10590;48.154;11.514;2023-04-27T01:14:12;95716.34;;;7.18;70.52
20860;BME280;10590;48.154;11.514;2023-04-27T01:19:34;95713.78;;;7.13;71.26
20860;BME280;10590;48.154;11.514;2023-04-27T01:24:57;95713.66;;;7.04;70.79
20860;BME280;10590;48.154;11.514;2023-04-27T01:30:20;95704.41;;;7.01;71.28
20860;BME280;10590;48.154;11.514;2023-04-27T01:35:42;95709.09;;;7.23;69.68
20860;BME280;10590;48.154;11.514;2023-04-27T01:41:06;95716.63;;;7.16;71.59
20860;BME280;10590;48.154;11.514;2023-04-27T01:46:28;95717.19;;;6.62;72.91
20860;BME280;10590;48.154;11.514;2023-04-27T01:51:50;95723.19;;;6.49;74.34
20860;BME280;10590;48.154;11.514;2023-04-27T01:57:14;95721.75;;;6.37;73.92
20860;BME280;10590;48.154;11.514;2023-04-27T02:02:36;95718.75;;;6.25;74.47
20860;BME280;10590;48.154;11.514;2023-04-27T02:07:58;95716.81;;;6.31;74.77
20860;BME280;10590;48.154;11.514;2023-04-27T02:13:21;95723.34;;;6.38;74.58
20860;BME280;10590;48.154;11.514;2023-04-27T02:18:43;95731.38;;;6.10;74.46
20860;BME280;10590;48.154;11.514;2023-04-27T02:24:05;95729.91;;;6.22;74.71
20860;BME280;10590;48.154;11.514;2023-04-27T02:29:30;95737.91;;;6.17;74.77
20860;BME280;10590;48.154;11.514;2023-04-27T02:34:52;95741.13;;;6.14;74.37
20860;BME280;10590;48.154;11.514;2023-04-27T02:40:16;95739.25;;;5.91;74.96
20860;BME280;10590;48.154;11.514;2023-04-27T02:45:39;95741.25;;;5.51;76.33
20860;BME280;10590;48.154;11.514;2023-04-27T02:51:02;95739.13;;;4.85;79.39
20860;BME280;10590;48.154;11.514;2023-04-27T02:56:24;95743.06;;;5.27;77.00
20860;BME280;10590;48.154;11.514;2023-04-27T03:01:48;95736.59;;;5.04;78.71
20860;BME280;10590;48.154;11.514;2023-04-27T03:07:10;95740.69;;;4.86;78.52
20860;BME280;10590;48.154;11.514;2023-04-27T03:12:32;95745.19;;;5.20;77.06
20860;BME280;10590;48.154;11.514;2023-04-27T03:17:55;95742.66;;;4.70;78.19
20860;BME280;10590;48.154;11.514;2023-04-27T03:23:17;95735.81;;;5.03;77.14
20860;BME280;10590;48.154;11.514;2023-04-27T03:28:39;95741.69;;;4.95;78.08
20860;BME280;10590;48.154;11.514;2023-04-27T03:34:03;95747.59;;;5.21;76.54
20860;BME280;10590;48.154;11.514;2023-04-27T03:39:26;95759.16;;;5.59;75.79
20860;BME280;10590;48.154;11.514;2023-04-27T03:44:48;95754.06;;;5.39;76.00
20860;BME280;10590;48.154;11.514;2023-04-27T03:50:11;95749.78;;;4.75;77.79
20860;BME280;10590;48.154;11.514;2023-04-27T03:55:36;95753.88;;;4.91;77.87
20860;BME280;10590;48.154;11.514;2023-04-27T04:00:58;95761.47;;;5.37;77.01
20860;BME280;10590;48.154;11.514;2023-04-27T04:06:21;95771.38;;;5.55;76.52
20860;BME280;10590;48.154;11.514;2023-04-27T04:11:43;95774.47;;;5.33;76.25
20860;BME280;10590;48.154;11.514;2023-04-27T04:17:08;95783.03;;;5.54;76.58
20860;BME280;10590;48.154;11.514;2023-04-27T04:22:31;95788.88;;;6.09;75.22
20860;BME280;10590;48.154;11.514;2023-04-27T04:27:53;95796.25;;;6.12;74.20
20860;BME280;10590;48.154;11.514;2023-04-27T04:33:15;95801.16;;;6.24;73.68
20860;BME280;10590;48.154;11.514;2023-04-27T04:38:39;95802.19;;;6.28;74.83
20860;BME280;10590;48.154;11.514;2023-04-27T04:44:01;95810.09;;;6.52;73.64
20860;BME280;10590;48.154;11.514;2023-04-27T04:49:23;95796.72;;;6.62;73.26
20860;BME280;10590;48.154;11.514;2023-04-27T04:54:46;95803.25;;;6.69;73.03
20860;BME280;10590;48.154;11.514;2023-04-27T05:00:09;95808.19;;;6.76;72.14
20860;BME280;10590;48.154;11.514;2023-04-27T05:05:33;95810.44;;;7.07;70.88
20860;BME280;10590;48.154;11.514;2023-04-27T05:10:56;95819.19;;;7.26;72.12
20860;BME280;10590;48.154;11.514;2023-04-27T05:16:18;95826.41;;;7.39;71.67
20860;BME280;10590;48.154;11.514;2023-04-27T05:21:40;95820.84;;;7.54;69.83
20860;BME280;10590;48.154;11.514;2023-04-27T05:27:03;95826.28;;;7.63;69.05
20860;BME280;10590;48.154;11.514;2023-04-27T05:32:25;95811.84;;;7.37;68.60
20860;BME280;10590;48.154;11.514;2023-04-27T05:37:47;95825.75;;;7.80;66.00
20860;BME280;10590;48.154;11.514;2023-04-27T05:43:11;95834.13;;;8.33;65.74
20860;BME280;10590;48.154;11.514;2023-04-27T05:48:32;95841.03;;;8.48;62.54
20860;BME280;10590;48.154;11.514;2023-04-27T05:53:54;95843.19;;;8.46;61.35
20860;BME280;10590;48.154;11.514;2023-04-27T05:59:18;95838.63;;;9.01;60.60
20860;BME280;10590;48.154;11.514;2023-04-27T06:04:39;95843.00;;;8.83;59.52
20860;BME280;10590;48.154;11.514;2023-04-27T06:10:01;95841.00;;;9.03;60.35
20860;BME280;10590;48.154;11.514;2023-04-27T06:15:25;95839.22;;;8.29;61.97
20860;BME280;10590;48.154;11.514;2023-04-27T06:20:47;95842.38;;;9.36;60.56
20860;BME280;10590;48.154;11.514;2023-04-27T06:26:09;95850.59;;;9.26;61.27
20860;BME280;10590;48.154;11.514;2023-04-27T06:31:32;95845.63;;;9.33;59.83
20860;BME280;10590;48.154;11.514;2023-04-27T06:36:54;95842.81;;;9.74;59.19
20860;BME280;10590;48.154;11.514;2023-04-27T06:42:16;95842.16;;;9.69;58.84
20860;BME280;10590;48.154;11.514;2023-04-27T06:47:39;95853.25;;;9.62;58.21
20860;BME280;10590;48.154;11.514;2023-04-27T06:53:01;95851.31;;;10.30;57.52
20860;BME280;10590;48.154;11.514;2023-04-27T06:58:23;95849.34;;;10.44;57.26
20860;BME280;10590;48.154;11.514;2023-04-27T07:03:48;95841.56;;;10.25;56.51
20860;BME280;10590;48.154;11.514;2023-04-27T07:09:12;95849.50;;;10.16;55.84
20860;BME280;10590;48.154;11.514;2023-04-27T07:14:34;95850.22;;;10.31;55.51
20860;BME280;10590;48.154;11.514;2023-04-27T07:19:57;95860.03;;;11.01;54.62
20860;BME280;10590;48.154;11.514;2023-04-27T07:25:19;95853.91;;;11.00;54.05
20860;BME280;10590;48.154;11.514;2023-04-27T07:30:41;95852.78;;;10.93;54.22
20860;BME280;10590;48.154;11.514;2023-04-27T07:36:05;95851.53;;;10.99;54.19
20860;BME280;10590;48.154;11.514;2023-04-27T07:41:27;95855.06;;;11.42;53.69
20860;BME280;10590;48.154;11.514;2023-04-27T07:46:50;95859.78;;;11.37;52.93
20860;BME280;10590;48.154;11.514;2023-04-27T07:52:19;95849.09;;;10.63;53.73
20860;BME280;10590;48.154;11.514;2023-04-27T07:57:41;95857.69;;;11.16;53.47
20860;BME280;10590;48.154;11.514;2023-04-27T08:03:03;95860.38;;;12.03;51.08
20860;BME280;10590;48.154;11.514;2023-04-27T08:08:27;95860.38;;;12.11;49.71
20860;BME280;10590;48.154;11.514;2023-04-27T08:13:49;95867.59;;;12.96;47.33
20860;BME280;10590;48.154;11.514;2023-04-27T08:19:11;95860.31;;;12.75;47.99
20860;BME280;10590;48.154;11.514;2023-04-27T08:24:34;95871.25;;;13.50;46.27
20860;BME280;10590;48.154;11.514;2023-04-27T08:29:57;95867.31;;;13.48;46.25
20860;BME280;10590;48.154;11.514;2023-04-27T08:35:20;95863.03;;;14.09;44.63
20860;BME280;10590;48.154;11.514;2023-04-27T08:40:43;95868.97;;;15.85;41.08
20860;BME280;10590;48.154;11.514;2023-04-27T08:46:05;95871.44;;;14.65;43.09
20860;BME280;10590;48.154;11.514;2023-04-27T08:51:28;95864.16;;;15.26;41.47
20860;BME280;10590;48.154;11.514;2023-04-27T08:56:52;95874.31;;;13.82;43.89
20860;BME280;10590;48.154;11.514;2023-04-27T09:02:18;95853.34;;;15.51;40.77
20860;BME280;10590;48.154;11.514;2023-04-27T09:07:40;95857.03;;;15.99;40.09
20860;BME280;10590;48.154;11.514;2023-04-27T09:13:03;95848.00;;;16.98;37.06
20860;BME280;10590;48.154;11.514;2023-04-27T09:18:26;95853.66;;;14.85;40.88
20860;BME280;10590;48.154;11.514;2023-04-27T09:23:48;95853.47;;;15.95;39.37
20860;BME280;10590;48.154;11.514;2023-04-27T09:29:12;95844.25;;;18.11;36.53
20860;BME280;10590;48.154;11.514;2023-04-27T09:34:37;95835.84;;;17.04;36.18
20860;BME280;10590;48.154;11.514;2023-04-27T09:40:01;95834.09;;;17.31;34.23
20860;BME280;10590;48.154;11.514;2023-04-27T09:45:25;95837.91;;;16.32;38.69
20860;BME280;10590;48.154;11.514;2023-04-27T09:50:49;95837.34;;;16.70;39.09
20860;BME280;10590;48.154;11.514;2023-04-27T09:56:25;95827.50;;;20.40;32.72
20860;BME280;10590;48.154;11.514;2023-04-27T10:01:53;95815.44;;;19.66;30.87
20860;BME280;10590;48.154;11.514;2023-04-27T10:07:16;95824.53;;;20.99;29.42
20860;BME280;10590;48.154;11.514;2023-04-27T10:12:38;95827.00;;;17.23;36.71
20860;BME280;10590;48.154;11.514;2023-04-27T10:18:04;95807.78;;;16.73;36.06
20860;BME280;10590;48.154;11.514;2023-04-27T10:23:26;95804.09;;;16.34;37.36
20860;BME280;10590;48.154;11.514;2023-04-27T10:28:56;95797.06;;;18.47;34.88
20860;BME280;10590;48.154;11.514;2023-04-27T10:34:20;95788.97;;;18.96;32.70
20860;BME280;10590;48.154;11.514;2023-04-27T10:39:43;95805.03;;;16.70;36.32
20860;BME280;10590;48.154;11.514;2023-04-27T10:45:06;95796.84;;;17.71;35.15
20860;BME280;10590;48.154;11.514;2023-04-27T10:50:29;95791.88;;;17.73;35.79
20860;BME280;10590;48.154;11.514;2023-04-27T10:55:54;95800.81;;;16.56;37.83
20860;BME280;10590;48.154;11.514;2023-04-27T11:01:23;95796.91;;;14.62;41.47
20860;BME280;10590;48.154;11.514;2023-04-27T11:06:46;95788.09;;;15.54;39.28
20860;BME280;10590;48.154;11.514;2023-04-27T11:12:11;95780.13;;;17.46;35.81
20860;BME280;10590;48.154;11.514;2023-04-27T11:17:33;95795.34;;;19.37;33.04
20860;BME280;10590;48.154;11.514;2023-04-27T11:22:57;95794.53;;;17.54;34.79
20860;BME280;10590;48.154;11.514;2023-04-27T11:28:19;95791.78;;;16.80;37.33
20860;BME280;10590;48.154;11.514;2023-04-27T11:33:47;95797.66;;;16.23;39.20
20860;BME280;10590;48.154;11.514;2023-04-27T11:39:16;95802.25;;;15.51;40.12
20860;BME280;10590;48.154;11.514;2023-04-27T11:44:39;95803.44;;;18.16;34.44
20860;BME280;10590;48.154;11.514;2023-04-27T11:50:02;95807.03;;;15.98;39.38
20860;BME280;10590;48.154;11.514;2023-04-27T11:55:26;95803.16;;;16.27;39.71
20860;BME280;10590;48.154;11.514;2023-04-27T12:00:48;95809.75;;;16.29;39.97
20860;BME280;10590;48.154;11.514;2023-04-27T12:06:10;95807.53;;;15.47;41.54
20860;BME280;10590;48.154;11.514;2023-04-27T12:11:34;95811.84;;;15.76;41.19
20860;BME280;10590;48.154;11.514;2023-04-27T12:16:56;95806.78;;;16.03;41.71
20860;BME280;10590;48.154;11.514;2023-04-27T12:22:19;95803.06;;;17.95;37.44
20860;BME280;10590;48.154;11.514;2023-04-27T12:27:42;95802.22;;;18.78;35.58
20860;BME280;10590;48.154;11.514;2023-04-27T12:33:07;95803.72;;;19.29;34.11
20860;BME280;10590;48.154;11.514;2023-04-27T12:38:30;95805.22;;;18.28;35.35
20860;BME280;10590;48.154;11.514;2023-04-27T12:43:53;95801.94;;;21.40;30.67
20860;BME280;10590;48.154;11.514;2023-04-27T12:49:16;95795.31;;;20.79;32.29
20860;BME280;10590;48.154;11.514;2023-04-27T12:54:38;95787.50;;;20.70;31.45
20860;BME280;10590;48.154;11.514;2023-04-27T13:00:02;95794.19;;;19.98;32.08
20860;BME280;10590;48.154;11.514;2023-04-27T13:05:27;95785.56;;;21.25;31.16
20860;BME280;10590;48.154;11.514;2023-04-27T13:10:49;95785.31;;;17.94;36.18
20860;BME280;10590;48.154;11.514;2023-04-27T13:16:12;95784.06;;;16.63;39.15
20860;BME280;10590;48.154;11.514;2023-04-27T13:21:36;95790.75;;;16.53;39.98
20860;BME280;10590;48.154;11.514;2023-04-27T13:26:58;95778.31;;;18.81;35.09
20860;BME280;10590;48.154;11.514;2023-04-27T13:32:22;95776.03;;;18.37;35.36
20860;BME280;10590;48.154;11.514;2023-04-27T13:37:44;95782.75;;;17.08;37.28
20860;BME280;10590;48.154;11.514;2023-04-27T13:43:06;95777.25;;;16.22;39.03
20860;BME280;10590;48.154;11.514;2023-04-27T13:48:29;95770.25;;;16.49;39.45
20860;BME280;10590;48.154;11.514;2023-04-27T13:53:52;95772.75;;;15.67;41.11
20860;BME280;10590;48.154;11.514;2023-04-27T13:59:14;95762.78;;;15.27;42.25
20860;BME280;10590;48.154;11.514;2023-04-27T14:04:38;95761.00;;;15.19;42.40
20860;BME280;10590;48.154;11.514;2023-04-27T14:10:00;95764.28;;;15.12;43.09
20860;BME280;10590;48.154;11.514;2023-04-27T14:15:22;95760.44;;;15.53;41.29
20860;BME280;10590;48.154;11.514;2023-04-27T14:20:45;95750.94;;;15.44;41.36
20860;BME280;10590;48.154;11.514;2023-04-27T14:26:07;95753.06;;;15.63;41.55
20860;BME280;10590;48.154;11.514;2023-04-27T14:31:29;95749.34;;;15.67;41.63
20860;BME280;10590;48.154;11.514;2023-04-27T14:36:52;95763.50;;;15.80;43.54
20860;BME280;10590;48.154;11.514;2023-04-27T14:42:14;95750.22;;;15.71;43.73
20860;BME280;10590;48.154;11.514;2023-04-27T14:47:36;95749.13;;;16.04;41.46
20860;BME280;10590;48.154;11.514;2023-04-27T14:53:00;95747.66;;;16.22;41.14
20860;BME280;10590;48.154;11.514;2023-04-27T14:58:22;95752.38;;;15.66;42.13
20860;BME280;10590;48.154;11.514;2023-04-27T15:03:44;95741.56;;;16.41;41.37
20860;BME280;10590;48.154;11.514;2023-04-27T15:09:07;95743.13;;;16.10;41.21
20860;BME280;10590;48.154;11.514;2023-04-27T15:14:31;95747.03;;;15.97;41.59
20860;BME280;10590;48.154;11.514;2023-04-27T15:19:53;95733.00;;;16.86;40.47
20860;BME280;10590;48.154;11.514;2023-04-27T15:25:16;95736.28;;;16.95;39.67
20860;BME280;10590;48.154;11.514;2023-04-27T15:30:38;95742.19;;;16.50;41.64
20860;BME280;10590;48.154;11.514;2023-04-27T15:36:01;95735.56;;;16.00;42.68
20860;BME280;10590;48.154;11.514;2023-04-27T15:41:24;95721.31;;;15.28;43.00
20860;BME280;10590;48.154;11.514;2023-04-27T15:46:46;95737.19;;;15.73;42.79
20860;BME280;10590;48.154;11.514;2023-04-27T15:52:08;95731.41;;;15.87;42.71
20860;BME280;10590;48.154;11.514;2023-04-27T15:57:31;95744.44;;;16.01;43.96
20860;BME280;10590;48.154;11.514;2023-04-27T16:02:53;95746.16;;;17.07;40.49
20860;BME280;10590;48.154;11.514;2023-04-27T16:08:15;95731.63;;;17.69;38.76
20860;BME280;10590;48.154;11.514;2023-04-27T16:13:39;95730.97;;;16.99;40.26
20860;BME280;10590;48.154;11.514;2023-04-27T16:19:01;95733.56;;;16.44;40.02
20860;BME280;10590;48.154;11.514;2023-04-27T16:24:23;95732.78;;;16.44;42.96
20860;BME280;10590;48.154;11.514;2023-04-27T16:29:47;95733.13;;;15.79;41.85
20860;BME280;10590;48.154;11.514;2023-04-27T16:35:09;95730.09;;;15.97;45.30
20860;BME280;10590;48.154;11.514;2023-04-27T16:40:31;95724.72;;;15.97;42.93
20860;BME280;10590;48.154;11.514;2023-04-27T16:45:54;95722.97;;;16.20;43.36
20860;BME280;10590;48.154;11.514;2023-04-27T16:51:16;95724.53;;;16.05;41.76
20860;BME280;10590;48.154;11.514;2023-04-27T16:56:38;95716.81;;;16.04;41.83
20860;BME280;10590;48.154;11.514;2023-04-27T17:02:01;95714.38;;;15.55;43.51
20860;BME280;10590;48.154;11.514;2023-04-27T17:07:23;95705.97;;;15.28;43.61
20860;BME280;10590;48.154;11.514;2023-04-27T17:12:48;95716.53;;;15.62;42.44
20860;BME280;10590;48.154;11.514;2023-04-27T17:18:12;95723.41;;;15.07;44.92
20860;BME280;10590;48.154;11.514;2023-04-27T17:23:34;95722.50;;;14.75;46.33
20860;BME280;10590;48.154;11.514;2023-04-27T17:28:56;95714.19;;;13.94;47.89
20860;BME280;10590;48.154;11.514;2023-04-27T17:34:20;95709.50;;;14.03;47.85
20860;BME280;10590;48.154;11.514;2023-04-27T17:39:42;95709.56;;;13.83;48.70
20860;BME280;10590;48.154;11.514;2023-04-27T17:45:06;95711.88;;;14.17;48.15
20860;BME280;10590;48.154;11.514;2023-04-27T17:50:29;95713.91;;;13.75;49.20
20860;BME280;10590;48.154;11.514;2023-04-27T17:55:51;95720.19;;;13.79;50.90
20860;BME280;10590;48.154;11.514;2023-04-27T18:01:13;95721.50;;;13.73;48.54
20860;BME280;10590;48.154;11.514;2023-04-27T18:06:36;95723.59;;;13.55;48.78
20860;BME280;10590;48.154;11.514;2023-04-27T18:11:58;95734.84;;;13.49;48.93
20860;BME280;10590;48.154;11.514;2023-04-27T18:17:21;95724.00;;;13.45;49.91
20860;BME280;10590;48.154;11.514;2023-04-27T18:22:46;95719.72;;;13.32;50.74
20860;BME280;10590;48.154;11.514;2023-04-27T18:28:08;95722.81;;;13.22;50.41
20860;BME280;10590;48.154;11.514;2023-04-27T18:33:30;95731.75;;;13.05;51.46
20860;BME280;10590;48.154;11.514;2023-04-27T18:38:53;95734.53;;;12.67;52.61
20860;BME280;10590;48.154;11.514;2023-04-27T18:44:17;95726.28;;;12.51;53.09
20860;BME280;10590;48.154;11.514;2023-04-27T18:49:39;95752.91;;;12.48;53.83
20860;BME280;10590;48.154;11.514;2023-04-27T18:55:03;95749.53;;;12.30;53.78
20860;BME280;10590;48.154;11.514;2023-04-27T19:00:27;95752.66;;;11.94;55.70
20860;BME280;10590;48.154;11.514;2023-04-27T19:05:52;95755.94;;;11.99;56.58
20860;BME280;10590;48.154;11.514;2023-04-27T19:11:15;95754.09;;;11.74;57.71
20860;BME280;10590;48.154;11.514;2023-04-27T19:16:41;95774.56;;;11.61;58.32
20860;BME280;10590;48.154;11.514;2023-04-27T19:22:03;95769.53;;;11.68;58.41
20860;BME280;10590;48.154;11.514;2023-04-27T19:27:27;95763.56;;;11.63;59.04
20860;BME280;10590;48.154;11.514;2023-04-27T19:32:50;95764.84;;;11.57;60.29
20860;BME280;10590;48.154;11.514;2023-04-27T19:38:12;95762.00;;;11.62;60.22
20860;BME280;10590;48.154;11.514;2023-04-27T19:43:35;95761.22;;;11.61;60.56
20860;BME280;10590;48.154;11.514;2023-04-27T19:48:57;95757.88;;;11.73;60.43
20860;BME280;10590;48.154;11.514;2023-04-27T19:54:20;95760.28;;;11.57;62.04
20860;BME280;10590;48.154;11.514;2023-04-27T19:59:44;95767.38;;;11.44;62.28
20860;BME280;10590;48.154;11.514;2023-04-27T20:05:06;95764.06;;;11.39;62.31
20860;BME280;10590;48.154;11.514;2023-04-27T20:10:28;95769.41;;;11.13;63.85
20860;BME280;10590;48.154;11.514;2023-04-27T20:15:51;95761.72;;;11.03;64.18
20860;BME280;10590;48.154;11.514;2023-04-27T20:21:14;95767.81;;;10.77;65.15
20860;BME280;10590;48.154;11.514;2023-04-27T20:26:36;95769.84;;;10.72;66.12
20860;BME280;10590;48.154;11.514;2023-04-27T20:31:59;95757.94;;;10.78;65.85
20860;BME280;10590;48.154;11.514;2023-04-27T20:37:21;95754.81;;;10.93;65.08
20860;BME280;10590;48.154;11.514;2023-04-27T20:42:44;95760.59;;;10.69;66.38
20860;BME280;10590;48.154;11.514;2023-04-27T20:48:08;95759.13;;;10.46;67.25
20860;BME280;10590;48.154;11.514;2023-04-27T20:53:31;95743.75;;;10.43;67.17
20860;BME280;10590;48.154;11.514;2023-04-27T20:58:53;95750.03;;;10.47;66.65
20860;BME280;10590;48.154;11.514;2023-04-27T21:04:16;95741.34;;;10.33;66.74
20860;BME280;10590;48.154;11.514;2023-04-27T21:09:38;95737.44;;;10.39;66.82
20860;BME280;10590;48.154;11.514;2023-04-27T21:15:00;95739.91;;;10.27;67.09
20860;BME280;10590;48.154;11.514;2023-04-27T21:20:24;95749.03;;;10.34;66.72
20860;BME280;10590;48.154;11.514;2023-04-27T21:25:46;95732.44;;;10.06;67.79
20860;BME280;10590;48.154;11.514;2023-04-27T21:31:08;95729.09;;;9.92;68.26
20860;BME280;10590;48.154;11.514;2023-04-27T21:36:32;95728.53;;;10.12;67.81
20860;BME280;10590;48.154;11.514;2023-04-27T21:41:54;95720.06;;;10.10;67.71
20860;BME280;10590;48.154;11.514;2023-04-27T21:47:16;95711.88;;;9.98;67.85
20860;BME280;10590;48.154;11.514;2023-04-27T21:52:39;95716.59;;;10.01;67.26
20860;BME280;10590;48.154;11.514;2023-04-27T21:58:01;95711.59;;;10.08;67.33
20860;BME280;10590;48.154;11.514;2023-04-27T22:03:23;95712.69;;;9.68;68.12
20860;BME280;10590;48.154;11.514;2023-04-27T22:08:46;95710.38;;;9.75;68.20
20860;BME280;10590;48.154;11.514;2023-04-27T22:14:08;95707.44;;;9.85;67.75
20860;BME280;10590;48.154;11.514;2023-04-27T22:19:30;95708.41;;;9.58;69.01
20860;BME280;10590;48.154;11.514;2023-04-27T22:24:53;95712.84;;;9.63;68.72
20860;BME280;10590;48.154;11.514;2023-04-27T22:30:22;95719.38;;;9.34;69.81
20860;BME280;10590;48.154;11.514;2023-04-27T22:35:44;95716.47;;;9.44;69.68
20860;BME280;10590;48.154;11.514;2023-04-27T22:41:07;95705.03;;;9.44;69.72
20860;BME280;10590;48.154;11.514;2023-04-27T22:46:29;95707.38;;;9.45;69.53
20860;BME280;10590;48.154;11.514;2023-04-27T22:51:51;95703.13;;;9.67;68.78
20860;BME280;10590;48.154;11.514;2023-04-27T22:57:14;95687.91;;;9.58;69.05
20860;BME280;10590;48.154;11.514;2023-04-27T23:02:36;95698.19;;;9.51;69.25
20860;BME280;10590;48.154;11.514;2023-04-27T23:07:59;95690.56;;;9.05;71.02
20860;BME280;10590;48.154;11.514;2023-04-27T23:13:22;95686.00;;;9.28;70.14
20860;BME280;10590;48.154;11.514;2023-04-27T23:18:47;95689.69;;;9.18;70.75
20860;BME280;10590;48.154;11.514;2023-04-27T23:24:09;95676.50;;;9.13;70.90
20860;BME280;10590;48.154;11.514;2023-04-27T23:29:32;95667.09;;;9.38;69.69
20860;BME280;10590;48.154;11.514;2023-04-27T23:34:54;95665.88;;;9.44;69.30
20860;BME280;10590;48.154;11.514;2023-04-27T23:40:16;95659.06;;;9.61;69.40
20860;BME280;10590;48.154;11.514;2023-04-27T23:45:40;95670.81;;;9.60;69.50
20860;BME280;10590;48.154;11.514;2023-04-27T23:51:03;95662.38;;;9.35;69.91
20860;BME280;10590;48.154;11.514;2023-04-27T23:56:27;95656.22;;;9.26;70.11
